Time;durP1;ratioP1;P1;durP2;ratioP2;P2;SDS_P1;SDS_P2;PMS_P1;PMS_P2;Temp;Humidity;BMP_temperature;BMP_pressure;BME280_temperature;BME280_humidity;BME280_pressure;Samples;Min_cycle;Max_cycle;Signal;HPM_P1;HPM_P2
2022/01/10 00:00:22;;;;;;;100.73;61.73;;;-4.10;99.90;-5.40;99817;;;;534134;265;24159;-78
2022/01/10 00:02:46;;;;;;;97.40;57.90;;;-4.10;99.90;-5.40;99826;;;;543571;259;24109;-76
2022/01/10 00:05:14;;;;;;;95.93;60.30;;;-4.10;99.90;-5.40;99823;;;;543999;259;24135;-76
2022/01/10 00:07:42;;;;;;;95.63;57.60;;;-4.10;99.90;-5.30;99827;;;;552452;258;24123;-76
2022/01/10 00:10:10;;;;;;;101.55;62.47;;;-4.00;99.90;-5.30;99822;;;;539369;260;35650;-76
2022/01/10 00:12:41;;;;;;;87.28;45.53;;;-4.00;99.90;-5.30;99832;;;;534669;258;35432;-76
2022/01/10 00:15:06;;;;;;;64.17;29.37;;;-4.00;99.90;-5.30;99826;;;;543719;259;24121;-77
2022/01/10 00:17:36;;;;;;;55.47;26.40;;;-3.90;99.90;-5.20;99836;;;;551499;253;24183;-77
2022/01/10 00:20:04;;;;;;;75.83;47.47;;;-3.90;99.90;-5.20;99851;;;;543868;258;24142;-77
2022/01/10 00:22:30;;;;;;;88.57;51.87;;;-3.90;99.90;-5.20;99845;;;;551437;254;24234;-77
2022/01/10 00:24:57;;;;;;;87.50;51.63;;;-3.90;99.90;-5.20;99844;;;;551306;260;24128;-77
2022/01/10 00:27:25;;;;;;;91.87;52.73;;;-3.90;99.90;-5.30;99861;;;;551358;258;24142;-77
2022/01/10 00:29:53;;;;;;;84.40;50.80;;;-3.90;99.90;-5.30;99855;;;;539197;260;24152;-77
2022/01/10 00:32:23;;;;;;;87.90;49.00;;;-4.00;99.90;-5.40;99863;;;;538861;260;24113;-76
2022/01/10 00:34:49;;;;;;;82.60;50.10;;;-4.00;99.90;-5.40;99862;;;;543450;258;24152;-77
2022/01/10 00:37:17;;;;;;;82.53;48.63;;;-4.10;99.90;-5.40;99865;;;;543836;260;24115;-77
2022/01/10 00:39:48;;;;;;;78.10;50.17;;;-4.10;99.90;-5.50;99874;;;;551623;259;24136;-77
2022/01/10 00:42:13;;;;;;;80.30;48.43;;;-4.10;99.90;-5.50;99876;;;;538896;259;24138;-77
2022/01/10 00:44:46;;;;;;;80.40;47.50;;;-4.10;99.90;-5.50;99888;;;;538875;260;24129;-76
2022/01/10 00:47:09;;;;;;;84.67;50.70;;;-4.20;99.90;-5.60;99891;;;;538947;260;24125;-78
2022/01/10 00:49:37;;;;;;;77.70;48.63;;;-4.20;99.90;-5.50;99900;;;;539029;260;24161;-76
2022/01/10 00:52:07;;;;;;;82.80;47.57;;;-4.20;99.90;-5.50;99899;;;;538929;260;25131;-79
2022/01/10 00:54:32;;;;;;;88.43;48.93;;;-4.20;99.90;-5.50;99903;;;;543502;259;24139;-79
2022/01/10 00:57:00;;;;;;;81.57;46.50;;;-4.20;99.90;-5.60;99911;;;;551468;260;24139;-80
2022/01/10 00:59:32;;;;;;;73.50;45.57;;;-4.20;99.90;-5.60;99907;;;;538874;260;24100;-78
2022/01/10 01:01:56;;;;;;;83.80;48.30;;;-4.20;99.90;-5.60;99910;;;;529462;265;24098;-79
2022/01/10 01:04:24;;;;;;;79.93;48.57;;;-4.20;99.90;-5.50;99913;;;;551498;252;24100;-79
2022/01/10 01:06:53;;;;;;;84.23;51.37;;;-4.20;99.90;-5.50;99920;;;;543524;260;24129;-79
2022/01/10 01:09:26;;;;;;;78.20;46.80;;;-4.20;99.90;-5.50;99915;;;;538582;260;24114;-79
2022/01/10 01:17:32;;;;;;;80.87;48.90;;;-4.10;99.90;-5.40;99934;;;;551823;259;24136;-78
2022/01/10 01:20:06;;;;;;;75.60;47.33;;;-4.10;99.90;-5.50;99936;;;;539487;260;24125;-79
2022/01/10 01:25:05;;;;;;;73.47;46.30;;;-4.20;99.90;-5.60;99946;;;;538141;258;24076;-79
2022/01/10 01:27:33;;;;;;;82.23;49.37;;;-4.20;99.90;-5.70;99961;;;;541610;265;24078;-79
2022/01/10 01:30:01;;;;;;;77.77;45.67;;;-4.30;99.90;-5.80;99968;;;;551550;257;24202;-80
2022/01/10 01:32:29;;;;;;;79.17;48.60;;;-4.40;99.90;-5.80;99973;;;;551756;258;24118;-79
2022/01/10 01:35:06;;;;;;;80.43;48.40;;;-4.50;99.90;-5.90;99971;;;;539081;260;24128;-78
2022/01/10 01:37:27;;;;;;;81.33;47.67;;;-4.50;99.90;-6.00;99964;;;;551174;256;24233;-79
2022/01/10 01:39:56;;;;;;;75.20;48.20;;;-4.60;99.90;-6.00;99969;;;;539185;260;24157;-78
2022/01/10 01:42:39;;;;;;;84.70;54.17;;;-4.60;99.90;-6.10;99971;;;;544341;260;24118;-78
2022/01/10 01:45:07;;;;;;;79.23;49.67;;;-4.70;99.90;-6.10;99987;;;;544953;258;24126;-77
2022/01/10 01:47:33;;;;;;;90.70;51.90;;;-4.70;99.90;-6.10;99991;;;;535358;264;24170;-77
2022/01/10 01:50:01;;;;;;;86.30;51.33;;;-4.80;99.90;-6.10;99986;;;;529750;267;24190;-76
2022/01/10 01:52:31;;;;;;;85.30;50.00;;;-4.70;99.90;-6.10;99983;;;;549590;255;24134;-79
2022/01/10 01:54:56;;;;;;;80.93;50.87;;;-4.70;99.90;-6.20;99990;;;;530838;260;24109;-76
2022/01/10 01:57:24;;;;;;;89.23;52.00;;;-4.80;99.90;-6.20;99997;;;;543958;260;24109;-78
2022/01/10 01:59:52;;;;;;;84.33;52.20;;;-4.80;99.90;-6.20;99996;;;;538992;260;24100;-77
2022/01/10 02:02:20;;;;;;;83.07;48.07;;;-4.80;99.90;-6.30;99999;;;;543636;260;24121;-77
2022/01/10 02:04:48;;;;;;;83.13;48.57;;;-4.80;99.90;-6.30;100000;;;;543598;260;24152;-78
2022/01/10 02:07:19;;;;;;;81.53;50.30;;;-4.90;99.90;-6.30;99990;;;;543597;260;24180;-76
2022/01/10 02:09:47;;;;;;;77.23;48.57;;;-4.90;99.90;-6.30;100000;;;;543306;258;24121;-76
2022/01/10 02:12:15;;;;;;;81.03;47.43;;;-4.90;99.90;-6.30;100018;;;;538539;260;24144;-76
2022/01/10 02:14:40;;;;;;;85.03;49.33;;;-4.90;99.90;-6.30;100024;;;;543248;259;24144;-76
2022/01/10 02:17:09;;;;;;;83.87;49.60;;;-4.90;99.90;-6.40;100022;;;;538629;257;24114;-75
2022/01/10 02:19:36;;;;;;;88.83;48.27;;;-5.00;99.90;-6.40;100019;;;;543263;260;24141;-77
2022/01/10 02:22:04;;;;;;;81.63;48.43;;;-5.00;99.90;-6.50;100024;;;;543205;260;25174;-76
2022/01/10 02:24:32;;;;;;;85.13;52.03;;;-5.10;99.90;-6.50;100024;;;;543277;260;24153;-76
2022/01/10 02:27:01;;;;;;;74.60;45.50;;;-5.10;99.90;-6.50;100038;;;;543244;260;24118;-76
2022/01/10 02:29:36;;;;;;;72.40;45.57;;;-5.10;99.90;-6.50;100033;;;;540281;259;24122;-76
2022/01/10 02:31:57;;;;;;;77.90;50.80;;;-5.10;99.90;-6.50;100033;;;;544572;260;24179;-77
2022/01/10 02:34:26;;;;;;;83.07;51.53;;;-5.10;99.90;-6.50;100040;;;;544336;260;24112;-76
2022/01/10 02:36:57;;;;;;;84.73;45.20;;;-5.10;99.90;-6.50;100048;;;;539973;260;24145;-77
2022/01/10 02:39:21;;;;;;;78.00;44.50;;;-5.10;99.90;-6.50;100047;;;;543639;257;24129;-78
2022/01/10 02:41:49;;;;;;;76.67;49.70;;;-5.10;99.90;-6.50;100047;;;;539461;260;25166;-76
2022/01/10 02:44:18;;;;;;;72.10;47.53;;;-5.10;99.90;-6.50;100051;;;;539397;260;24115;-77
2022/01/10 02:46:47;;;;;;;75.03;44.23;;;-5.10;99.90;-6.60;100053;;;;551520;256;24167;-77
2022/01/10 02:49:15;;;;;;;77.23;43.63;;;-5.10;99.90;-6.50;100055;;;;551371;256;24145;-77
2022/01/10 02:51:44;;;;;;;75.57;43.73;;;-5.10;99.90;-6.50;100055;;;;538460;260;24139;-77
2022/01/10 02:54:14;;;;;;;79.47;49.87;;;-5.10;99.90;-6.60;100059;;;;543497;260;24094;-77
2022/01/10 02:56:51;;;;;;;79.77;48.13;;;-5.20;99.90;-6.70;100063;;;;543444;260;24143;-76
2022/01/10 02:59:18;;;;;;;78.53;47.43;;;-5.20;99.90;-6.70;100079;;;;538722;257;24119;-77
2022/01/10 03:01:46;;;;;;;94.75;58.67;;;-5.20;99.90;-6.70;100095;;;;546544;259;35438;-77
2022/01/10 03:04:17;;;;;;;76.20;45.93;;;-5.20;99.90;-6.80;100100;;;;543481;260;24121;-78
2022/01/10 03:06:49;;;;;;;75.57;47.53;;;-5.30;99.90;-6.80;100099;;;;543265;260;24124;-80
2022/01/10 03:09:16;;;;;;;89.82;53.75;;;-5.30;99.90;-6.80;100109;;;;538455;260;35401;-79
2022/01/10 03:11:44;;;;;;;79.97;46.27;;;-5.30;99.90;-6.80;100115;;;;538345;260;24184;-79
2022/01/10 03:14:12;;;;;;;80.60;52.23;;;-5.30;99.90;-6.80;100120;;;;543174;259;24173;-80
2022/01/10 03:16:37;;;;;;;88.93;53.60;;;-5.30;99.90;-6.80;100118;;;;543038;257;24134;-78
2022/01/10 03:19:05;;;;;;;83.63;50.63;;;-5.30;99.90;-6.80;100125;;;;543224;260;24113;-79
2022/01/10 03:21:34;;;;;;;81.40;50.80;;;-5.40;99.90;-6.80;100131;;;;543331;260;24109;-78
2022/01/10 03:24:00;;;;;;;80.23;49.20;;;-5.40;99.90;-6.80;100134;;;;543214;260;24172;-79
2022/01/10 03:26:32;;;;;;;82.07;48.77;;;-5.30;99.90;-6.80;100143;;;;543599;260;24124;-78
2022/01/10 03:28:57;;;;;;;81.30;52.63;;;-5.40;99.90;-6.80;100149;;;;543145;259;24136;-79
2022/01/10 03:31:26;;;;;;;83.10;52.90;;;-5.40;99.90;-6.80;100153;;;;538873;260;24159;-80
2022/01/10 03:33:53;;;;;;;82.07;50.77;;;-5.40;99.90;-6.80;100154;;;;543618;260;24105;-79
2022/01/10 03:36:21;;;;;;;80.93;54.07;;;-5.40;99.90;-6.80;100166;;;;543570;260;24121;-77
2022/01/10 03:38:49;;;;;;;82.00;46.37;;;-5.40;99.90;-6.90;100169;;;;543590;260;24115;-77
2022/01/10 03:41:17;;;;;;;75.33;46.23;;;-5.40;99.90;-6.90;100168;;;;540121;258;24185;-76
2022/01/10 03:43:45;;;;;;;89.27;54.37;;;-5.50;99.90;-6.90;100170;;;;544154;260;24173;-77
2022/01/10 03:46:13;;;;;;;83.40;46.80;;;-5.50;99.90;-6.90;100178;;;;539763;260;24124;-76
2022/01/10 03:48:40;;;;;;;82.57;51.00;;;-5.50;99.90;-7.00;100178;;;;543867;260;24167;-76
2022/01/10 03:51:08;;;;;;;81.83;46.27;;;-5.50;99.90;-7.00;100187;;;;543824;260;24117;-79
2022/01/10 03:53:37;;;;;;;82.03;50.40;;;-5.60;99.90;-7.00;100199;;;;543718;260;24098;-76
2022/01/10 03:56:05;;;;;;;75.93;43.93;;;-5.60;99.90;-7.10;100201;;;;543818;260;24112;-77
2022/01/10 03:58:33;;;;;;;85.03;52.87;;;-5.60;99.90;-7.10;100216;;;;543708;260;24149;-80
2022/01/10 04:01:05;;;;;;;86.03;52.43;;;-5.70;99.90;-7.10;100212;;;;543439;260;24194;-78
2022/01/10 04:03:31;;;;;;;84.17;48.00;;;-5.70;99.90;-7.10;100212;;;;529715;264;24101;-79
2022/01/10 04:05:59;;;;;;;83.27;47.13;;;-5.60;99.90;-7.00;100207;;;;543442;256;24121;-80
2022/01/10 04:08:28;;;;;;;80.77;46.40;;;-5.60;99.90;-7.00;100216;;;;543516;260;24159;-80
2022/01/10 04:10:56;;;;;;;83.20;48.33;;;-5.60;99.90;-7.00;100222;;;;543505;260;24110;-79
2022/01/10 04:13:25;;;;;;;81.17;50.73;;;-5.60;99.90;-7.00;100231;;;;543901;260;25147;-78
2022/01/10 04:15:57;;;;;;;75.60;48.33;;;-5.60;99.90;-7.00;100236;;;;543385;260;24105;-77
2022/01/10 04:18:22;;;;;;;80.90;45.63;;;-5.60;99.90;-7.10;100237;;;;542952;258;25222;-77
2022/01/10 04:20:50;;;;;;;76.20;46.27;;;-5.60;99.90;-7.00;100242;;;;551192;260;24116;-78
2022/01/10 04:23:18;;;;;;;75.53;42.87;;;-5.60;99.90;-7.00;100242;;;;543230;260;24117;-79
2022/01/10 04:25:46;;;;;;;76.83;43.23;;;-5.60;99.90;-7.00;100244;;;;543344;257;24133;-79
2022/01/10 04:28:14;;;;;;;75.90;45.60;;;-5.60;99.90;-7.00;100254;;;;543262;260;24199;-79
2022/01/10 04:30:42;;;;;;;77.97;45.87;;;-5.60;99.90;-7.00;100264;;;;543168;260;24136;-80
2022/01/10 04:33:17;;;;;;;78.83;47.23;;;-5.60;99.90;-7.10;100268;;;;539377;260;25169;-80
2022/01/10 04:35:40;;;;;;;76.80;44.70;;;-5.60;99.90;-7.10;100278;;;;543538;260;24110;-79
2022/01/10 04:38:08;;;;;;;79.97;46.47;;;-5.70;99.90;-7.10;100281;;;;543525;260;24135;-80
2022/01/10 04:40:37;;;;;;;76.97;48.10;;;-5.70;99.90;-7.10;100283;;;;538859;260;24149;-80
2022/01/10 04:43:05;;;;;;;76.90;43.87;;;-5.70;99.90;-7.10;100292;;;;543374;260;24132;-78
2022/01/10 04:45:34;;;;;;;78.07;47.93;;;-5.70;99.90;-7.10;100289;;;;543277;260;24103;-80
2022/01/10 04:48:03;;;;;;;79.70;50.67;;;-5.60;99.90;-7.00;100292;;;;543176;260;24180;-80
2022/01/10 04:53:11;;;;;;;78.20;45.70;;;-5.50;99.90;-6.80;100323;;;;552371;259;24130;-80
2022/01/10 04:55:38;;;;;;;81.87;46.97;;;-5.50;99.90;-6.80;100319;;;;539907;260;24104;-80
2022/01/10 04:58:06;;;;;;;80.03;50.13;;;-5.40;99.90;-6.80;100324;;;;543937;260;24144;-80
2022/01/10 05:00:34;;;;;;;89.07;46.10;;;-5.40;99.90;-6.70;100322;;;;543985;260;24119;-80
2022/01/10 05:03:02;;;;;;;80.90;46.33;;;-5.40;99.90;-6.70;100338;;;;543692;260;24131;-79
2022/01/10 05:05:30;;;;;;;83.57;50.03;;;-5.30;99.90;-6.60;100341;;;;543850;260;24121;-78
2022/01/10 05:07:58;;;;;;;86.20;50.13;;;-5.20;99.90;-6.50;100343;;;;543762;260;24153;-77
2022/01/10 05:10:26;;;;;;;90.07;51.17;;;-5.20;99.90;-6.50;100348;;;;543479;260;24154;-79
2022/01/10 05:12:54;;;;;;;90.73;52.10;;;-5.10;99.90;-6.50;100354;;;;543584;260;24102;-78
2022/01/10 05:15:22;;;;;;;81.33;48.23;;;-5.10;99.90;-6.50;100355;;;;551349;257;24236;-79
2022/01/10 05:17:50;;;;;;;90.40;49.73;;;-5.10;99.90;-6.50;100366;;;;543556;260;24101;-80
2022/01/10 05:20:18;;;;;;;86.17;49.27;;;-5.10;99.90;-6.50;100361;;;;543516;260;24112;-80
2022/01/10 05:22:46;;;;;;;81.93;48.27;;;-5.10;99.90;-6.50;100370;;;;543372;260;25199;-80
2022/01/10 05:25:14;;;;;;;79.37;46.20;;;-5.10;99.90;-6.50;100384;;;;543587;260;24124;-80
2022/01/10 05:27:44;;;;;;;72.90;43.60;;;-5.10;99.90;-6.50;100376;;;;543302;260;24187;-78
2022/01/10 05:30:10;;;;;;;72.53;41.73;;;-5.10;99.90;-6.30;100385;;;;543385;260;24147;-80
2022/01/10 05:32:38;;;;;;;77.07;46.50;;;-4.90;99.90;-6.20;100397;;;;551094;260;24101;-77
2022/01/10 05:35:06;;;;;;;78.97;48.47;;;-5.00;99.90;-6.10;100388;;;;539279;260;25177;-76
2022/01/10 05:37:34;;;;;;;75.63;45.07;;;-4.80;99.90;-6.10;100395;;;;539309;260;24110;-79
2022/01/10 05:40:02;;;;;;;77.17;48.70;;;-4.70;99.90;-6.00;100398;;;;543219;260;24127;-79
2022/01/10 05:42:33;;;;;;;79.03;48.03;;;-4.70;99.90;-6.00;100399;;;;551135;260;24134;-78
2022/01/10 05:44:58;;;;;;;75.23;44.20;;;-4.60;99.90;-5.90;100405;;;;538971;259;24161;-79
2022/01/10 05:47:26;;;;;;;78.47;48.60;;;-4.60;99.90;-5.90;100416;;;;543334;260;24116;-78
2022/01/10 05:50:00;;;;;;;85.40;53.87;;;-4.60;99.90;-5.80;100417;;;;538519;258;35426;-77
2022/01/10 05:52:26;;;;;;;34.13;19.80;;;-4.50;99.90;-5.70;100425;;;;543526;260;24176;-76
2022/01/10 05:54:49;;;;;;;78.23;44.93;;;-4.40;99.90;-5.60;100431;;;;538791;260;24117;-77
2022/01/10 05:57:18;;;;;;;74.93;44.90;;;-4.20;99.90;-5.50;100435;;;;543177;260;24160;-77
2022/01/10 05:59:47;;;;;;;80.03;46.50;;;-4.20;99.90;-5.50;100434;;;;543319;260;24106;-78
2022/01/10 06:02:15;;;;;;;76.20;47.00;;;-4.20;99.90;-5.50;100433;;;;543231;260;24121;-78
2022/01/10 06:04:43;;;;;;;70.53;45.73;;;-4.10;99.90;-5.40;100434;;;;544574;259;25130;-76
2022/01/10 06:07:12;;;;;;;71.13;43.70;;;-4.10;99.90;-5.40;100444;;;;544203;260;24150;-76
2022/01/10 06:09:39;;;;;;;72.00;43.43;;;-4.10;99.90;-5.40;100446;;;;543831;260;24140;-79
2022/01/10 06:12:07;;;;;;;69.93;43.83;;;-4.10;99.90;-5.50;100450;;;;543951;260;24119;-76
2022/01/10 06:14:35;;;;;;;67.23;41.60;;;-4.10;99.90;-5.50;100457;;;;551593;260;24195;-76
2022/01/10 06:17:03;;;;;;;62.97;37.87;;;-4.10;99.90;-5.60;100463;;;;543756;260;24109;-79
2022/01/10 06:19:34;;;;;;;66.23;41.03;;;-4.20;99.90;-5.70;100470;;;;539483;260;24141;-79
2022/01/10 06:21:59;;;;;;;71.12;45.58;;;-4.20;99.90;-5.70;100478;;;;538738;260;35551;-77
2022/01/10 06:24:28;;;;;;;42.47;22.80;;;-4.30;99.90;-5.90;100491;;;;543510;260;24135;-76
2022/01/10 06:26:56;;;;;;;61.10;38.10;;;-4.50;99.90;-5.90;100503;;;;543399;260;24144;-77
2022/01/10 06:29:24;;;;;;;62.43;38.03;;;-4.60;99.90;-6.00;100508;;;;543587;260;24131;-78
2022/01/10 06:31:52;;;;;;;65.67;41.60;;;-4.60;99.90;-6.00;100515;;;;543422;260;24141;-78
2022/01/10 06:34:20;;;;;;;78.33;46.03;;;-4.60;99.90;-6.10;100519;;;;543589;257;24134;-79
2022/01/10 06:36:48;;;;;;;72.63;47.80;;;-4.70;99.90;-6.10;100527;;;;539601;260;24153;-78
2022/01/10 06:39:16;;;;;;;71.70;46.87;;;-4.70;99.90;-6.10;100529;;;;543717;258;24112;-78
2022/01/10 06:41:44;;;;;;;70.47;41.97;;;-4.80;99.90;-6.20;100536;;;;543374;260;24178;-77
2022/01/10 06:44:12;;;;;;;69.50;40.43;;;-4.80;99.90;-6.20;100538;;;;543234;260;24109;-79
2022/01/10 06:46:40;;;;;;;69.20;45.77;;;-4.80;99.90;-6.20;100544;;;;543392;260;24155;-77
2022/01/10 06:49:08;;;;;;;70.37;44.80;;;-4.80;99.90;-6.20;100549;;;;543248;260;24143;-79
2022/01/10 06:51:36;;;;;;;73.63;45.70;;;-4.80;99.90;-6.30;100551;;;;543198;260;24123;-79
2022/01/10 06:54:04;;;;;;;69.63;44.60;;;-4.90;99.90;-6.30;100555;;;;543299;260;24140;-78
2022/01/10 06:56:33;;;;;;;74.97;47.30;;;-5.00;99.90;-6.40;100549;;;;543198;260;24114;-77
2022/01/10 06:59:02;;;;;;;76.13;50.03;;;-5.00;99.90;-6.40;100562;;;;543287;260;24113;-74
2022/01/10 07:01:30;;;;;;;76.83;48.53;;;-5.00;99.90;-6.40;100559;;;;543231;260;24140;-75
2022/01/10 07:03:59;;;;;;;79.70;50.80;;;-5.00;99.90;-6.50;100571;;;;538657;260;24132;-75
2022/01/10 07:06:28;;;;;;;84.67;48.00;;;-5.10;99.90;-6.50;100578;;;;543285;260;24121;-76
2022/01/10 07:08:58;;;;;;;77.50;49.87;;;-5.10;99.90;-6.50;100578;;;;543603;260;24109;-77
2022/01/10 07:11:27;;;;;;;79.73;48.60;;;-5.10;99.90;-6.50;100576;;;;543293;260;24136;-77
2022/01/10 07:13:56;;;;;;;69.80;42.67;;;-5.10;99.90;-6.50;100596;;;;551092;258;24116;-77
2022/01/10 07:16:28;;;;;;;74.03;44.97;;;-5.10;99.90;-6.50;100596;;;;544603;259;24108;-76
2022/01/10 07:18:53;;;;;;;69.73;41.23;;;-5.10;99.90;-6.50;100607;;;;544193;259;24198;-78
2022/01/10 07:21:21;;;;;;;66.97;43.80;;;-5.10;99.90;-6.50;100610;;;;544108;257;25143;-77
2022/01/10 07:23:49;;;;;;;77.83;45.83;;;-5.10;99.90;-6.40;100604;;;;543932;260;24167;-76
2022/01/10 07:26:17;;;;;;;69.87;44.73;;;-5.00;99.90;-6.40;100607;;;;539389;260;24180;-76
2022/01/10 07:28:45;;;;;;;73.40;47.37;;;-5.00;99.90;-6.30;100618;;;;543752;260;24124;-77
2022/01/10 07:31:13;;;;;;;69.13;40.67;;;-4.90;99.90;-6.30;100624;;;;543745;260;24109;-77
2022/01/10 07:33:41;;;;;;;68.83;44.20;;;-4.90;99.90;-6.20;100621;;;;551589;259;24154;-80
2022/01/10 07:36:08;;;;;;;70.87;47.27;;;-4.80;99.90;-6.20;100631;;;;543440;260;24118;-79
2022/01/10 07:38:36;;;;;;;62.47;43.10;;;-4.80;99.90;-6.10;100624;;;;539567;260;24137;-77
2022/01/10 07:41:05;;;;;;;70.00;44.57;;;-4.70;99.90;-6.10;100637;;;;543854;260;24197;-75
2022/01/10 07:43:34;;;;;;;64.73;40.33;;;-4.70;99.90;-6.00;100640;;;;543450;260;24131;-76
2022/01/10 07:46:03;;;;;;;62.00;42.77;;;-4.60;99.90;-6.00;100645;;;;551458;255;24124;-76
2022/01/10 07:48:31;;;;;;;67.87;40.43;;;-4.50;99.90;-5.90;100661;;;;551380;256;24225;-77
2022/01/10 07:50:59;;;;;;;70.43;44.13;;;-4.60;99.90;-5.90;100659;;;;543470;260;24105;-78
2022/01/10 07:53:27;;;;;;;73.93;46.37;;;-4.50;99.90;-5.80;100667;;;;538555;260;24179;-77
2022/01/10 07:55:55;;;;;;;73.90;47.63;;;-4.40;99.90;-5.70;100661;;;;543602;260;24124;-76
2022/01/10 07:58:23;;;;;;;75.03;45.97;;;-4.40;99.90;-5.70;100671;;;;543235;260;24130;-77
2022/01/10 08:00:51;;;;;;;73.57;48.77;;;-4.30;99.90;-5.70;100673;;;;543598;260;24190;-76
2022/01/10 08:03:20;;;;;;;71.43;46.00;;;-4.20;99.90;-5.60;100690;;;;543574;257;24131;-76
2022/01/10 08:05:52;;;;;;;69.40;46.93;;;-4.20;99.90;-5.60;100684;;;;543590;260;24110;-77
2022/01/10 08:08:17;;;;;;;69.33;46.90;;;-4.10;99.90;-5.50;100705;;;;542999;260;24130;-77
2022/01/10 08:10:46;;;;;;;76.00;46.43;;;-4.10;99.90;-5.40;100703;;;;543211;260;24125;-77
2022/01/10 08:13:14;;;;;;;70.70;45.77;;;-4.00;99.90;-5.30;100708;;;;543167;260;24143;-76
2022/01/10 08:15:43;;;;;;;67.23;43.60;;;-3.90;99.90;-5.30;100712;;;;543310;260;24117;-75
2022/01/10 08:18:12;;;;;;;74.57;46.50;;;-3.80;99.90;-5.20;100718;;;;543207;260;24161;-77
2022/01/10 08:20:40;;;;;;;69.30;42.23;;;-3.80;99.90;-5.10;100717;;;;551119;256;24180;-78
2022/01/10 08:23:09;;;;;;;62.90;40.37;;;-3.70;99.90;-5.10;100723;;;;543266;260;24128;-76
2022/01/10 08:25:37;;;;;;;62.10;38.17;;;-3.70;99.90;-5.00;100727;;;;543374;260;24135;-77
2022/01/10 08:28:09;;;;;;;59.37;40.13;;;-3.60;99.90;-4.90;100734;;;;544577;259;24133;-77
2022/01/10 08:30:34;;;;;;;65.70;41.07;;;-3.50;99.90;-4.90;100728;;;;534593;263;24062;-76
2022/01/10 08:33:02;;;;;;;67.27;39.23;;;-3.50;99.90;-4.80;100742;;;;551913;251;24133;-80
2022/01/10 08:35:31;;;;;;;82.27;45.40;;;-3.40;99.90;-4.80;100751;;;;543797;260;24121;-77
2022/01/10 08:38:00;;;;;;;63.37;39.23;;;-3.40;99.90;-4.70;100752;;;;551712;257;24185;-78
2022/01/10 08:40:28;;;;;;;65.93;43.10;;;-3.40;99.90;-4.70;100754;;;;539829;260;24139;-79
2022/01/10 08:42:55;;;;;;;64.57;41.90;;;-3.30;99.90;-4.60;100760;;;;544058;260;24107;-78
2022/01/10 08:45:23;;;;;;;66.00;40.83;;;-3.30;99.90;-4.60;100756;;;;543630;260;25197;-78
2022/01/10 08:47:51;;;;;;;66.80;41.20;;;-3.20;99.90;-4.50;100763;;;;543423;260;24156;-77
2022/01/10 08:50:19;;;;;;;61.03;38.23;;;-3.20;99.90;-4.50;100764;;;;543590;257;24110;-77
2022/01/10 08:52:48;;;;;;;63.80;40.27;;;-3.10;99.90;-4.40;100778;;;;543475;260;24161;-80
2022/01/10 08:55:15;;;;;;;62.27;38.60;;;-3.10;99.90;-4.40;100779;;;;543558;260;24157;-79
2022/01/10 08:57:43;;;;;;;59.23;39.00;;;-3.00;99.90;-4.30;100792;;;;543546;260;24109;-78
2022/01/10 09:00:11;;;;;;;64.27;38.90;;;-3.00;99.90;-4.20;100800;;;;543400;260;24186;-79
2022/01/10 09:02:39;;;;;;;69.53;42.47;;;-2.90;99.90;-4.10;100798;;;;539208;260;24128;-79
2022/01/10 09:05:11;;;;;;;63.03;40.23;;;-2.70;99.90;-4.00;100808;;;;543239;260;24113;-76
2022/01/10 09:07:36;;;;;;;64.73;41.60;;;-2.70;99.90;-4.00;100810;;;;542945;260;24159;-79
2022/01/10 09:10:05;;;;;;;65.10;40.07;;;-2.60;99.90;-3.90;100800;;;;543276;260;24157;-80
2022/01/10 09:12:34;;;;;;;70.73;44.67;;;-2.50;99.90;-3.90;100801;;;;538773;260;24141;-80
2022/01/10 09:15:02;;;;;;;63.10;37.67;;;-2.50;99.90;-3.80;100809;;;;543305;260;24141;-80
2022/01/10 09:17:31;;;;;;;67.70;44.07;;;-2.40;99.90;-3.70;100816;;;;538489;260;24117;-77
2022/01/10 09:20:00;;;;;;;72.53;39.60;;;-2.30;99.90;-3.70;100829;;;;543296;260;24134;-77
2022/01/10 09:22:32;;;;;;;61.30;36.60;;;-2.30;99.90;-3.60;100835;;;;543218;260;24128;-79
2022/01/10 09:25:01;;;;;;;66.97;40.20;;;-2.20;99.90;-3.50;100845;;;;534202;265;24075;-80
2022/01/10 09:27:29;;;;;;;60.67;36.53;;;-2.10;99.90;-3.40;100839;;;;541601;258;24107;-79
2022/01/10 09:29:54;;;;;;;47.70;26.37;;;-2.00;99.90;-3.30;100847;;;;551173;255;24060;-79
2022/01/10 09:32:23;;;;;;;44.30;22.33;;;-1.90;99.90;-3.20;100861;;;;543305;260;24132;-79
2022/01/10 09:34:52;;;;;;;44.73;22.23;;;-1.90;99.90;-3.10;100858;;;;543166;260;24102;-79
2022/01/10 09:37:20;;;;;;;34.00;17.97;;;-1.80;99.90;-3.00;100869;;;;543322;260;24109;-78
2022/01/10 09:39:48;;;;;;;48.67;22.87;;;-1.80;99.90;-3.00;100879;;;;544627;259;24124;-79
2022/01/10 09:42:16;;;;;;;46.67;23.50;;;-1.70;99.90;-2.90;100876;;;;540254;260;24145;-79
2022/01/10 09:44:44;;;;;;;39.47;21.53;;;-1.60;99.90;-2.80;100887;;;;551862;259;24124;-77
2022/01/10 09:47:12;;;;;;;36.13;19.67;;;-1.60;99.90;-2.80;100886;;;;552092;259;24137;-77
2022/01/10 09:49:40;;;;;;;33.30;20.17;;;-1.50;99.90;-2.70;100892;;;;526071;267;24205;-76
2022/01/10 09:52:08;;;;;;;41.83;18.77;;;-1.50;99.90;-2.70;100902;;;;562576;254;24110;-77
2022/01/10 09:54:36;;;;;;;33.00;16.33;;;-1.50;99.90;-2.60;100910;;;;551680;253;24124;-76
2022/01/10 09:57:07;;;;;;;36.30;16.57;;;-1.40;99.90;-2.60;100921;;;;543501;260;24176;-76
2022/01/10 09:59:32;;;;;;;39.33;18.37;;;-1.40;99.90;-2.60;100916;;;;534094;264;24100;-76
2022/01/10 10:02:00;;;;;;;26.23;15.80;;;-1.30;99.90;-2.60;100917;;;;543472;260;24140;-76
2022/01/10 10:04:29;;;;;;;30.23;16.67;;;-1.30;99.90;-2.50;100928;;;;538768;260;24140;-77
2022/01/10 10:06:57;;;;;;;26.47;15.03;;;-1.30;99.90;-2.40;100927;;;;543493;260;24133;-77
2022/01/10 10:09:25;;;;;;;26.20;13.33;;;-1.20;99.90;-2.40;100935;;;;543466;260;24109;-76
2022/01/10 10:11:54;;;;;;;26.20;14.50;;;-1.10;99.90;-2.40;100944;;;;543604;260;24156;-77
2022/01/10 10:14:22;;;;;;;26.47;12.40;;;-1.10;99.90;-2.30;100929;;;;551240;259;24109;-74
2022/01/10 10:16:53;;;;;;;22.67;11.77;;;-1.00;99.90;-2.20;100937;;;;543372;260;24113;-76
2022/01/10 10:19:20;;;;;;;20.43;11.43;;;-1.00;99.90;-2.20;100944;;;;543207;260;24129;-76
2022/01/10 10:21:48;;;;;;;28.47;12.60;;;-0.90;99.90;-2.10;100941;;;;542992;260;24128;-76
2022/01/10 10:24:17;;;;;;;27.40;14.13;;;-0.80;99.90;-2.10;100951;;;;543286;260;24135;-77
2022/01/10 10:26:48;;;;;;;33.17;17.57;;;-0.90;99.90;-2.00;100957;;;;543197;260;24109;-75
2022/01/10 10:29:18;;;;;;;28.43;16.77;;;-0.80;99.90;-2.00;100963;;;;550969;252;24141;-76
2022/01/10 10:31:50;;;;;;;28.90;16.93;;;-0.80;99.90;-2.00;100965;;;;543214;260;24134;-77
2022/01/10 10:34:23;;;;;;;20.57;11.63;;;-0.80;99.90;-2.00;100982;;;;539329;260;24120;-76
2022/01/10 10:37:09;;;;;;;17.30;11.07;;;-0.70;99.90;-1.90;100988;;;;538335;260;24105;-76
2022/01/10 10:39:37;;;;;;;28.53;12.13;;;-0.70;99.90;-1.90;100981;;;;538813;260;24164;-77
2022/01/10 10:42:05;;;;;;;23.93;12.00;;;-0.70;99.90;-1.90;100988;;;;538534;260;24120;-78
2022/01/10 10:44:33;;;;;;;29.13;13.47;;;-0.60;99.90;-1.80;100989;;;;538882;260;24125;-77
2022/01/10 10:47:01;;;;;;;21.80;12.23;;;-0.60;99.90;-1.80;100996;;;;543238;260;24198;-77
2022/01/10 10:49:33;;;;;;;18.67;11.37;;;-0.60;99.90;-1.80;100995;;;;543972;259;24100;-78
2022/01/10 10:51:56;;;;;;;29.87;11.90;;;-0.60;99.90;-1.70;101008;;;;551796;252;24137;-78
2022/01/10 10:54:24;;;;;;;16.63;10.47;;;-0.50;99.90;-1.70;100996;;;;543835;260;24138;-76
2022/01/10 10:56:52;;;;;;;21.10;9.57;;;-0.50;99.90;-1.70;100998;;;;543788;260;24108;-77
2022/01/10 10:59:23;;;;;;;22.40;10.10;;;-0.50;99.90;-1.70;101012;;;;538978;260;24113;-77
2022/01/10 11:01:48;;;;;;;20.90;10.00;;;-0.50;99.90;-1.70;101007;;;;534751;264;24130;-77
2022/01/10 11:04:16;;;;;;;28.20;13.73;;;-0.50;99.90;-1.60;101018;;;;544118;260;24126;-78
2022/01/10 11:06:44;;;;;;;21.80;11.07;;;-0.40;99.90;-1.60;101009;;;;543463;260;24137;-77
2022/01/10 11:09:15;;;;;;;10.73;5.70;;;-0.40;99.90;-1.60;101020;;;;543673;260;24128;-78